createdAt,value
2017-10-08T00:00:23.180Z,0
2017-10-08T00:01:24.803Z,0
2017-10-08T00:02:26.426Z,0
2017-10-08T00:03:28.052Z,0
2017-10-08T00:04:29.677Z,0
2017-10-08T00:05:31.300Z,0
2017-10-08T00:06:32.920Z,0
2017-10-08T00:07:34.546Z,0
2017-10-08T00:08:36.167Z,0
2017-10-08T00:09:37.790Z,0
2017-10-08T00:10:39.414Z,0
2017-10-08T00:11:41.040Z,0
2017-10-08T00:12:42.661Z,0
2017-10-08T00:13:44.282Z,0
2017-10-08T00:14:45.904Z,0
2017-10-08T00:15:47.527Z,0
2017-10-08T00:16:49.151Z,0
2017-10-08T00:17:50.775Z,0
2017-10-08T00:18:52.401Z,0
2017-10-08T00:19:54.023Z,0
2017-10-08T00:20:55.644Z,0
2017-10-08T00:21:57.268Z,0
2017-10-08T00:22:58.892Z,0
2017-10-08T00:24:00.516Z,0
2017-10-08T00:25:02.138Z,0
2017-10-08T00:26:03.762Z,0
2017-10-08T00:27:05.383Z,0
2017-10-08T00:28:07.004Z,0
2017-10-08T00:29:08.629Z,0
2017-10-08T00:30:10.254Z,0
2017-10-08T00:31:11.877Z,0
2017-10-08T00:32:13.499Z,0
2017-10-08T00:33:15.126Z,0
2017-10-08T00:34:16.745Z,0
2017-10-08T00:35:18.369Z,0
2017-10-08T00:36:19.990Z,0
2017-10-08T00:37:21.612Z,0
2017-10-08T00:38:23.239Z,0
2017-10-08T00:39:24.861Z,0
2017-10-08T00:40:26.485Z,0
2017-10-08T00:41:28.107Z,0
2017-10-08T00:42:29.730Z,0
2017-10-08T00:43:31.354Z,0
2017-10-08T00:44:32.977Z,0
2017-10-08T00:45:34.598Z,0
2017-10-08T00:46:36.220Z,0
2017-10-08T00:47:37.845Z,0
2017-10-08T00:48:39.467Z,0
2017-10-08T00:49:41.091Z,0
2017-10-08T00:50:42.712Z,0
2017-10-08T00:51:44.335Z,0
2017-10-08T00:52:45.960Z,0
2017-10-08T00:53:47.582Z,0
2017-10-08T00:54:49.210Z,0
2017-10-08T00:55:50.830Z,0
2017-10-08T00:56:52.452Z,0
2017-10-08T00:57:54.076Z,0
2017-10-08T00:58:55.699Z,0
2017-10-08T00:59:57.319Z,0
2017-10-08T01:00:58.944Z,0
2017-10-08T01:02:00.569Z,0
2017-10-08T01:03:02.191Z,0
2017-10-08T01:04:03.816Z,0
2017-10-08T01:05:05.437Z,0
2017-10-08T01:06:07.063Z,0
2017-10-08T01:07:08.686Z,0
2017-10-08T01:08:10.309Z,0
2017-10-08T01:09:11.934Z,0
2017-10-08T01:10:13.555Z,0
2017-10-08T01:11:15.182Z,0
2017-10-08T01:12:16.802Z,0
2017-10-08T01:13:18.424Z,0
2017-10-08T01:14:20.050Z,0
2017-10-08T01:15:21.671Z,0
2017-10-08T01:16:23.297Z,0
2017-10-08T01:17:24.919Z,0
2017-10-08T01:18:26.542Z,0
2017-10-08T01:19:28.160Z,0
2017-10-08T01:20:29.784Z,0
2017-10-08T01:21:31.411Z,0
2017-10-08T01:22:33.033Z,0
2017-10-08T01:23:34.659Z,0
2017-10-08T01:24:36.279Z,0
2017-10-08T01:25:37.902Z,0
2017-10-08T01:26:39.527Z,0
2017-10-08T01:27:41.147Z,0
2017-10-08T01:28:42.770Z,0
2017-10-08T01:29:44.400Z,0
2017-10-08T01:30:46.021Z,0
2017-10-08T01:31:47.643Z,0
2017-10-08T01:32:49.265Z,0
2017-10-08T01:33:50.889Z,0
2017-10-08T01:34:52.510Z,0
2017-10-08T01:35:54.134Z,0
2017-10-08T01:36:55.757Z,0
2017-10-08T01:37:57.386Z,0
2017-10-08T01:38:59.017Z,0
2017-10-08T01:40:00.626Z,0
2017-10-08T01:41:02.248Z,0
2017-10-08T01:42:03.872Z,0
2017-10-08T01:43:05.498Z,0
2017-10-08T01:44:07.119Z,0
2017-10-08T01:45:08.748Z,0
2017-10-08T01:46:10.365Z,0
2017-10-08T01:47:11.988Z,0
2017-10-08T01:48:13.611Z,0
2017-10-08T01:49:15.233Z,0
2017-10-08T01:50:16.858Z,0
2017-10-08T01:51:18.483Z,0
2017-10-08T01:52:20.109Z,0
2017-10-08T01:53:21.731Z,0
2017-10-08T01:54:23.354Z,0
2017-10-08T01:55:24.978Z,0
2017-10-08T01:56:26.599Z,0
2017-10-08T01:57:28.222Z,0
2017-10-08T01:58:29.846Z,0
2017-10-08T01:59:31.472Z,0
2017-10-08T02:00:33.093Z,0
2017-10-08T02:01:34.715Z,0
2017-10-08T02:02:36.341Z,0
2017-10-08T02:03:37.964Z,0
2017-10-08T02:04:39.589Z,0
2017-10-08T02:05:41.212Z,0
2017-10-08T02:06:42.835Z,0
2017-10-08T02:07:44.460Z,0
2017-10-08T02:08:46.080Z,0
2017-10-08T02:09:47.703Z,0
2017-10-08T02:10:49.326Z,0
2017-10-08T02:11:50.951Z,0
2017-10-08T02:12:52.574Z,0
2017-10-08T02:13:54.199Z,0
2017-10-08T02:14:55.821Z,0
2017-10-08T02:15:57.445Z,0
2017-10-08T02:16:59.065Z,0
2017-10-08T02:18:00.689Z,0
2017-10-08T02:19:02.312Z,0
2017-10-08T02:20:03.936Z,0
2017-10-08T02:21:05.563Z,0
2017-10-08T02:22:07.183Z,0
2017-10-08T02:23:08.804Z,0
2017-10-08T02:24:10.429Z,0
2017-10-08T02:25:12.052Z,0
2017-10-08T02:26:13.678Z,0
2017-10-08T02:27:15.298Z,0
2017-10-08T02:28:16.923Z,0
2017-10-08T02:29:18.543Z,0
2017-10-08T02:30:20.172Z,0
2017-10-08T02:31:21.789Z,0
2017-10-08T02:32:23.412Z,0
2017-10-08T02:33:25.036Z,0
2017-10-08T02:34:26.660Z,0
2017-10-08T02:35:28.286Z,0
2017-10-08T02:36:29.907Z,0
2017-10-08T02:37:31.529Z,0
2017-10-08T02:38:33.155Z,0
2017-10-08T02:39:34.776Z,0
2017-10-08T02:40:36.402Z,0
2017-10-08T02:41:38.026Z,0
2017-10-08T02:42:39.652Z,0
2017-10-08T02:43:41.277Z,0
2017-10-08T02:44:42.900Z,0
2017-10-08T02:45:44.519Z,0
2017-10-08T02:46:46.145Z,0
2017-10-08T02:47:47.766Z,0
2017-10-08T02:48:49.388Z,0
2017-10-08T02:49:51.015Z,0
2017-10-08T02:50:52.636Z,0
2017-10-08T02:51:54.257Z,0
2017-10-08T02:52:55.884Z,0
2017-10-08T02:53:57.503Z,0
2017-10-08T02:54:59.126Z,0
2017-10-08T02:56:00.750Z,0
2017-10-08T02:57:02.373Z,0
2017-10-08T02:58:03.994Z,0
2017-10-08T02:59:05.621Z,0
2017-10-08T03:00:07.242Z,0
2017-10-08T03:01:08.866Z,0
2017-10-08T03:02:10.488Z,0
2017-10-08T03:03:12.111Z,0
2017-10-08T03:04:13.741Z,0
2017-10-08T03:05:15.357Z,0
2017-10-08T03:06:16.980Z,0
2017-10-08T03:07:18.603Z,0
2017-10-08T03:08:20.227Z,0
2017-10-08T03:09:21.852Z,0
2017-10-08T03:10:23.476Z,0
2017-10-08T03:11:25.100Z,0
2017-10-08T03:12:26.723Z,0
2017-10-08T03:13:28.345Z,0
2017-10-08T03:14:29.969Z,0
2017-10-08T03:15:31.593Z,0
2017-10-08T03:16:33.217Z,0
2017-10-08T03:17:34.838Z,0
2017-10-08T03:18:36.464Z,0
2017-10-08T03:19:38.088Z,0
2017-10-08T03:20:39.712Z,0
2017-10-08T03:21:41.338Z,0
2017-10-08T03:22:42.957Z,0
2017-10-08T03:23:44.582Z,0
2017-10-08T03:24:46.205Z,0
2017-10-08T03:25:47.831Z,0
2017-10-08T03:26:49.452Z,0
2017-10-08T03:27:51.073Z,0
2017-10-08T03:28:52.698Z,0
2017-10-08T03:29:54.321Z,0
2017-10-08T03:30:55.944Z,0
2017-10-08T03:31:57.570Z,0
2017-10-08T03:32:59.193Z,0
2017-10-08T03:34:00.817Z,0
2017-10-08T03:35:02.440Z,0
2017-10-08T03:36:04.062Z,0
2017-10-08T03:37:05.685Z,0
2017-10-08T03:38:07.308Z,0
2017-10-08T03:39:08.946Z,0
2017-10-08T03:40:10.558Z,0
2017-10-08T03:41:12.180Z,0
2017-10-08T03:42:13.807Z,0
2017-10-08T03:43:15.424Z,0
2017-10-08T03:44:17.048Z,0
2017-10-08T03:45:18.674Z,0
2017-10-08T03:46:20.299Z,0
2017-10-08T03:47:21.922Z,0
2017-10-08T03:48:23.546Z,0
2017-10-08T03:49:25.166Z,0
2017-10-08T03:50:26.789Z,0
2017-10-08T03:51:28.413Z,0
2017-10-08T03:52:30.037Z,0
2017-10-08T03:53:31.659Z,0
2017-10-08T03:54:33.285Z,0
2017-10-08T03:55:34.906Z,0
2017-10-08T03:56:36.528Z,0
2017-10-08T03:57:38.152Z,0
2017-10-08T03:58:39.774Z,0
2017-10-08T03:59:41.399Z,0
2017-10-08T04:00:43.023Z,0
2017-10-08T04:01:44.647Z,0
2017-10-08T04:02:46.268Z,0
2017-10-08T04:03:47.891Z,0
2017-10-08T04:04:49.513Z,0
2017-10-08T04:05:51.138Z,0
2017-10-08T04:06:52.763Z,0
2017-10-08T04:07:54.388Z,0
2017-10-08T04:08:56.012Z,0
2017-10-08T04:09:57.634Z,0
2017-10-08T04:10:59.257Z,0
2017-10-08T04:12:00.879Z,0
2017-10-08T04:13:02.500Z,0
2017-10-08T04:14:04.122Z,0
2017-10-08T04:15:05.749Z,0
2017-10-08T04:16:07.371Z,0
2017-10-08T04:17:08.993Z,0
2017-10-08T04:18:10.616Z,0
2017-10-08T04:19:12.239Z,0
2017-10-08T04:20:13.862Z,0
2017-10-08T04:21:15.488Z,0
2017-10-08T04:22:17.111Z,0
2017-10-08T04:23:18.737Z,0
2017-10-08T04:24:20.361Z,0
2017-10-08T04:25:21.982Z,0
2017-10-08T04:26:23.606Z,0
2017-10-08T04:27:25.229Z,0
2017-10-08T04:28:26.853Z,0
2017-10-08T04:29:28.477Z,0
2017-10-08T04:30:30.103Z,0
2017-10-08T04:31:31.726Z,0
2017-10-08T04:32:33.352Z,0
2017-10-08T04:33:34.972Z,0
2017-10-08T04:34:36.594Z,0
2017-10-08T04:35:38.220Z,0
2017-10-08T04:36:39.848Z,0
2017-10-08T04:37:41.470Z,0
2017-10-08T04:38:43.093Z,0
2017-10-08T04:39:44.716Z,0
2017-10-08T04:40:46.337Z,0
2017-10-08T04:41:47.961Z,0
2017-10-08T04:42:49.585Z,0
2017-10-08T04:43:51.210Z,0
2017-10-08T04:44:52.834Z,0
2017-10-08T04:45:54.456Z,0
2017-10-08T04:46:56.081Z,0
2017-10-08T04:47:57.704Z,0
2017-10-08T04:48:59.326Z,0
2017-10-08T04:50:00.950Z,0
2017-10-08T04:51:02.574Z,0
2017-10-08T04:52:04.201Z,0
2017-10-08T04:53:05.823Z,0
2017-10-08T04:54:07.446Z,0
2017-10-08T04:55:09.069Z,0
2017-10-08T04:56:10.693Z,0
2017-10-08T04:57:12.313Z,0
2017-10-08T04:58:13.939Z,0
2017-10-08T04:59:15.564Z,0
2017-10-08T05:00:17.187Z,0
2017-10-08T05:01:18.812Z,0
2017-10-08T05:02:20.433Z,0
2017-10-08T05:03:22.054Z,0
2017-10-08T05:04:23.681Z,0
2017-10-08T05:05:25.302Z,0
2017-10-08T05:06:26.929Z,0
2017-10-08T05:07:28.550Z,0
2017-10-08T05:08:30.176Z,0
2017-10-08T05:09:31.798Z,0
2017-10-08T05:10:33.421Z,0
2017-10-08T05:11:35.042Z,0
2017-10-08T05:12:36.667Z,0
2017-10-08T05:13:38.291Z,0
2017-10-08T05:14:39.912Z,0
2017-10-08T05:15:41.536Z,0
2017-10-08T05:16:43.159Z,0
2017-10-08T05:17:44.780Z,0
2017-10-08T05:18:46.403Z,0
2017-10-08T05:19:48.027Z,0
2017-10-08T05:20:49.651Z,0
2017-10-08T05:21:51.274Z,4
2017-10-08T05:22:52.896Z,0
2017-10-08T05:23:54.522Z,4
2017-10-08T05:24:56.143Z,0
2017-10-08T05:25:57.767Z,4
2017-10-08T05:26:59.390Z,4
2017-10-08T05:28:01.015Z,4
2017-10-08T05:29:02.637Z,4
2017-10-08T05:30:04.262Z,4
2017-10-08T05:31:05.877Z,4
2017-10-08T05:32:07.502Z,4
2017-10-08T05:33:09.130Z,8
2017-10-08T05:34:10.748Z,8
2017-10-08T05:35:12.374Z,12
2017-10-08T05:36:13.998Z,12
2017-10-08T05:37:15.622Z,12
2017-10-08T05:38:17.246Z,16
2017-10-08T05:39:18.870Z,28
2017-10-08T05:40:20.493Z,32
2017-10-08T05:41:22.119Z,32
2017-10-08T05:42:23.746Z,32
2017-10-08T05:43:25.369Z,36
2017-10-08T05:44:26.992Z,32
2017-10-08T05:45:28.619Z,24
2017-10-08T05:46:30.242Z,24
2017-10-08T05:47:31.867Z,36
2017-10-08T05:48:33.492Z,40
2017-10-08T05:49:35.115Z,40
2017-10-08T05:50:36.740Z,24
2017-10-08T05:51:38.363Z,32
2017-10-08T05:52:39.988Z,40
2017-10-08T05:53:41.612Z,56
2017-10-08T05:54:43.234Z,44
2017-10-08T05:55:44.860Z,40
2017-10-08T05:56:46.484Z,44
2017-10-08T05:57:48.107Z,56
2017-10-08T05:58:49.734Z,92
2017-10-08T05:59:51.355Z,140
2017-10-08T06:00:52.984Z,124
2017-10-08T06:01:54.607Z,112
2017-10-08T06:02:56.233Z,124
2017-10-08T06:03:57.860Z,136
2017-10-08T06:04:59.483Z,192
2017-10-08T06:06:01.106Z,256
2017-10-08T06:07:02.731Z,260
2017-10-08T06:08:04.357Z,312
2017-10-08T06:09:05.986Z,316
2017-10-08T06:10:07.611Z,240
2017-10-08T06:11:09.238Z,200
2017-10-08T06:12:10.862Z,156
2017-10-08T06:13:12.488Z,196
2017-10-08T06:14:14.114Z,172
2017-10-08T06:15:15.740Z,204
2017-10-08T06:16:17.365Z,276
2017-10-08T06:17:18.997Z,344
2017-10-08T06:18:20.622Z,388
2017-10-08T06:19:22.252Z,404
2017-10-08T06:20:23.875Z,276
2017-10-08T06:21:25.500Z,300
2017-10-08T06:22:27.125Z,344
2017-10-08T06:23:28.751Z,440
2017-10-08T06:24:30.378Z,468
2017-10-08T06:25:32.007Z,360
2017-10-08T06:26:33.632Z,340
2017-10-08T06:27:35.259Z,428
2017-10-08T06:28:36.899Z,488
2017-10-08T06:29:38.527Z,476
2017-10-08T06:30:40.153Z,660
2017-10-08T06:31:41.781Z,680
2017-10-08T06:32:43.408Z,712
2017-10-08T06:33:45.035Z,852
2017-10-08T06:34:46.660Z,752
2017-10-08T06:35:48.287Z,616
2017-10-08T06:36:49.916Z,476
2017-10-08T06:37:51.540Z,456
2017-10-08T06:38:53.167Z,388
2017-10-08T06:39:54.793Z,656
2017-10-08T06:40:56.433Z,1216
2017-10-08T06:41:58.048Z,1628
2017-10-08T06:42:59.677Z,1496
2017-10-08T06:44:01.304Z,876
2017-10-08T06:45:02.932Z,556
2017-10-08T06:46:04.558Z,472
2017-10-08T06:47:06.185Z,472
2017-10-08T06:48:07.810Z,584
2017-10-08T06:49:09.434Z,796
2017-10-08T06:50:11.062Z,1044
2017-10-08T06:51:12.690Z,744
2017-10-08T06:52:14.316Z,352
2017-10-08T06:53:16.203Z,316
2017-10-08T06:54:18.046Z,308
2017-10-08T06:55:19.671Z,360
2017-10-08T06:56:21.342Z,364
2017-10-08T06:57:22.968Z,336
2017-10-08T06:58:24.593Z,300
2017-10-08T06:59:26.221Z,268
2017-10-08T07:00:27.846Z,348
2017-10-08T07:01:29.489Z,396
2017-10-08T07:02:31.131Z,324
2017-10-08T07:03:32.755Z,368
2017-10-08T07:04:34.383Z,428
2017-10-08T07:05:36.672Z,608
2017-10-08T07:06:38.300Z,748
2017-10-08T07:07:39.932Z,1100
2017-10-08T07:08:41.561Z,1516
2017-10-08T07:09:43.186Z,1604
2017-10-08T07:10:44.924Z,1296
2017-10-08T07:11:46.709Z,1580
2017-10-08T07:12:50.302Z,1028
2017-10-08T07:13:51.931Z,800
2017-10-08T07:14:53.607Z,840
2017-10-08T07:15:55.352Z,1040
2017-10-08T07:16:56.977Z,1084
2017-10-08T07:17:58.607Z,1296
2017-10-08T07:19:00.233Z,1268
2017-10-08T07:20:01.860Z,1192
2017-10-08T07:21:03.489Z,2164
2017-10-08T07:22:05.116Z,2288
2017-10-08T07:23:07.045Z,1676
2017-10-08T07:24:08.674Z,1360
2017-10-08T07:25:10.303Z,1580
2017-10-08T07:26:12.361Z,2240
2017-10-08T07:27:13.986Z,2120
2017-10-08T07:28:15.629Z,2052
2017-10-08T07:29:17.251Z,1980
2017-10-08T07:30:19.003Z,2808
2017-10-08T07:31:20.631Z,2288
2017-10-08T07:32:22.259Z,2136
2017-10-08T07:33:23.887Z,2436
2017-10-08T07:34:25.514Z,1696
2017-10-08T07:35:27.144Z,2516
2017-10-08T07:36:28.770Z,2848
2017-10-08T07:37:31.455Z,3320
2017-10-08T07:38:33.036Z,3884
2017-10-08T07:39:34.664Z,3000
2017-10-08T07:40:36.296Z,2216
2017-10-08T07:41:37.918Z,2976
2017-10-08T07:42:39.552Z,1972
2017-10-08T07:43:41.176Z,1372
2017-10-08T07:44:42.807Z,1280
2017-10-08T07:45:44.433Z,1464
2017-10-08T07:46:46.059Z,1860
2017-10-08T07:47:47.686Z,2496
2017-10-08T07:48:49.311Z,3412
2017-10-08T07:49:50.940Z,3816
2017-10-08T07:50:54.194Z,2736
2017-10-08T07:51:55.835Z,2912
2017-10-08T07:52:57.467Z,5260
2017-10-08T07:53:59.113Z,6904
2017-10-08T07:55:00.717Z,4872
2017-10-08T07:56:02.342Z,3124
2017-10-08T07:57:03.968Z,3572
2017-10-08T07:58:05.597Z,3380
2017-10-08T07:59:07.227Z,3160
2017-10-08T08:00:08.854Z,2572
2017-10-08T08:01:10.479Z,2016
2017-10-08T08:02:12.111Z,3876
2017-10-08T08:03:13.738Z,4280
2017-10-08T08:04:15.368Z,3516
2017-10-08T08:05:16.998Z,5008
2017-10-08T08:06:18.625Z,4388
2017-10-08T08:07:20.253Z,2980
2017-10-08T08:08:21.881Z,2712
2017-10-08T08:09:23.505Z,3120
2017-10-08T08:10:25.139Z,1948
2017-10-08T08:11:26.766Z,1368
2017-10-08T08:12:28.393Z,1236
2017-10-08T08:13:30.023Z,1160
2017-10-08T08:14:31.651Z,1500
2017-10-08T08:15:33.277Z,1704
2017-10-08T08:16:34.903Z,3788
2017-10-08T08:17:36.541Z,4192
2017-10-08T08:18:38.166Z,3716
2017-10-08T08:19:39.795Z,2984
2017-10-08T08:20:41.423Z,1728
2017-10-08T08:21:43.049Z,1320
2017-10-08T08:22:44.674Z,1084
2017-10-08T08:23:46.299Z,1020
2017-10-08T08:24:47.925Z,1648
2017-10-08T08:25:49.554Z,2152
2017-10-08T08:26:51.180Z,2088
2017-10-08T08:27:52.811Z,3392
2017-10-08T08:28:54.435Z,5372
2017-10-08T08:29:56.061Z,6116
2017-10-08T08:30:57.687Z,6044
2017-10-08T08:31:59.313Z,3340
2017-10-08T08:33:00.938Z,2820
2017-10-08T08:34:02.566Z,2344
2017-10-08T08:35:04.195Z,2124
2017-10-08T08:36:05.821Z,2360
2017-10-08T08:37:07.444Z,4328
2017-10-08T08:38:09.070Z,4684
2017-10-08T08:39:10.699Z,4764
2017-10-08T08:40:12.326Z,5160
2017-10-08T08:41:13.957Z,5732
2017-10-08T08:42:15.583Z,6524
2017-10-08T08:43:17.211Z,6668
2017-10-08T08:44:18.839Z,5328
2017-10-08T08:45:20.466Z,4500
2017-10-08T08:46:22.119Z,3388
2017-10-08T08:47:23.749Z,4120
2017-10-08T08:48:25.379Z,4580
2017-10-08T08:49:27.212Z,3948
2017-10-08T08:50:28.841Z,4152
2017-10-08T08:51:30.471Z,3432
2017-10-08T08:52:32.094Z,4696
2017-10-08T08:53:34.014Z,6108
2017-10-08T08:54:35.589Z,5852
2017-10-08T08:55:37.224Z,4520
2017-10-08T08:56:38.854Z,5180
2017-10-08T08:57:41.250Z,5796
2017-10-08T08:58:42.855Z,8924
2017-10-08T08:59:44.484Z,11860
2017-10-08T09:00:46.321Z,8744
2017-10-08T09:01:47.910Z,7416
2017-10-08T09:02:49.538Z,6136
2017-10-08T09:03:51.165Z,6504
2017-10-08T09:04:52.793Z,11660
2017-10-08T09:05:54.421Z,7308
2017-10-08T09:06:56.048Z,3932
2017-10-08T09:07:57.677Z,3940
2017-10-08T09:08:59.479Z,7580
2017-10-08T09:10:01.138Z,5000
2017-10-08T09:11:02.765Z,8104
2017-10-08T09:12:04.393Z,9764
2017-10-08T09:13:06.023Z,10288
2017-10-08T09:14:07.652Z,10124
2017-10-08T09:15:09.277Z,10544
2017-10-08T09:16:10.910Z,12340
2017-10-08T09:17:12.538Z,14748
2017-10-08T09:18:14.168Z,12092
2017-10-08T09:19:15.800Z,12048
2017-10-08T09:20:17.428Z,10356
2017-10-08T09:21:19.056Z,10100
2017-10-08T09:22:20.684Z,7924
2017-10-08T09:23:22.312Z,6572
2017-10-08T09:24:23.943Z,7180
2017-10-08T09:25:25.576Z,8924
2017-10-08T09:26:28.299Z,6048
2017-10-08T09:27:29.364Z,5864
2017-10-08T09:28:30.992Z,7028
2017-10-08T09:29:34.090Z,6172
2017-10-08T09:30:35.718Z,5036
2017-10-08T09:31:37.347Z,6292
2017-10-08T09:32:38.979Z,4400
2017-10-08T09:33:40.605Z,4744
2017-10-08T09:34:42.232Z,4392
2017-10-08T09:35:43.857Z,2656
2017-10-08T09:36:45.487Z,2404
2017-10-08T09:37:47.114Z,4056
2017-10-08T09:38:48.745Z,3944
2017-10-08T09:39:50.374Z,3248
2017-10-08T09:40:52.005Z,5596
2017-10-08T09:41:53.639Z,5128
2017-10-08T09:42:55.268Z,7700
2017-10-08T09:43:57.317Z,7792
2017-10-08T09:44:59.199Z,9296
2017-10-08T09:46:01.014Z,10124
2017-10-08T09:47:02.671Z,7136
2017-10-08T09:48:04.287Z,4348
2017-10-08T09:49:06.614Z,3360
2017-10-08T09:50:07.995Z,3688
2017-10-08T09:51:11.060Z,4784
2017-10-08T09:52:12.667Z,3676
2017-10-08T09:53:14.415Z,2720
2017-10-08T09:54:16.047Z,2076
2017-10-08T09:55:17.667Z,1604
2017-10-08T09:56:19.294Z,1776
2017-10-08T09:57:20.922Z,3444
2017-10-08T09:58:22.547Z,3024
2017-10-08T09:59:24.339Z,2704
2017-10-08T10:00:25.963Z,3396
2017-10-08T10:01:27.929Z,3468
2017-10-08T10:02:29.668Z,4268
2017-10-08T10:03:31.452Z,4240
2017-10-08T10:04:33.055Z,5048
2017-10-08T10:05:34.683Z,7612
2017-10-08T10:06:36.311Z,8488
2017-10-08T10:07:37.941Z,7504
2017-10-08T10:08:40.752Z,7928
2017-10-08T10:09:43.128Z,9376
2017-10-08T10:10:44.953Z,11000
2017-10-08T10:11:46.580Z,10288
2017-10-08T10:12:48.210Z,8972
2017-10-08T10:13:49.837Z,9748
2017-10-08T10:14:51.462Z,9324
2017-10-08T10:15:53.094Z,7728
2017-10-08T10:16:54.721Z,5648
2017-10-08T10:17:56.349Z,3596
2017-10-08T10:18:57.974Z,2760
2017-10-08T10:19:59.600Z,2676
2017-10-08T10:21:01.273Z,2744
2017-10-08T10:22:02.902Z,3200
2017-10-08T10:23:04.529Z,5256
2017-10-08T10:24:06.155Z,8868
2017-10-08T10:25:07.783Z,10532
2017-10-08T10:26:09.412Z,11892
2017-10-08T10:27:11.040Z,8508
2017-10-08T10:28:12.667Z,5244
2017-10-08T10:29:14.295Z,3600
2017-10-08T10:30:15.924Z,3288
2017-10-08T10:31:17.553Z,3188
2017-10-08T10:32:19.183Z,2964
2017-10-08T10:33:20.807Z,2964
2017-10-08T10:34:22.457Z,3016
2017-10-08T10:35:24.086Z,2612
2017-10-08T10:36:25.713Z,2548
2017-10-08T10:37:27.342Z,2504
2017-10-08T10:38:29.096Z,2712
2017-10-08T10:39:30.712Z,2908
2017-10-08T10:40:32.353Z,3216
2017-10-08T10:41:33.997Z,3936
2017-10-08T10:42:35.625Z,5040
2017-10-08T10:43:37.737Z,5896
2017-10-08T10:44:39.366Z,6876
2017-10-08T10:45:40.994Z,8092
2017-10-08T10:46:42.619Z,8948
2017-10-08T10:47:44.247Z,9584
2017-10-08T10:48:45.876Z,10256
2017-10-08T10:49:47.509Z,12020
2017-10-08T10:50:49.385Z,13688
2017-10-08T10:51:51.014Z,16512
2017-10-08T10:52:54.317Z,17856
2017-10-08T10:53:55.963Z,16156
2017-10-08T10:54:57.825Z,16672
2017-10-08T10:55:59.454Z,17152
2017-10-08T10:57:01.082Z,21280
2017-10-08T10:58:02.714Z,22560
2017-10-08T10:59:04.379Z,21024
2017-10-08T11:00:06.036Z,33504
2017-10-08T11:01:07.667Z,22208
2017-10-08T11:02:09.299Z,47488
2017-10-08T11:03:10.929Z,57376
2017-10-08T11:04:12.558Z,29504
2017-10-08T11:05:14.191Z,17408
2017-10-08T11:06:15.820Z,17856
2017-10-08T11:07:17.448Z,14744
2017-10-08T11:08:19.078Z,18688
2017-10-08T11:09:20.710Z,16896
2017-10-08T11:10:22.361Z,35840
2017-10-08T11:11:23.974Z,38336
2017-10-08T11:12:25.609Z,30816
2017-10-08T11:13:27.241Z,43552
2017-10-08T11:14:29.014Z,30304
2017-10-08T11:15:30.647Z,49696
2017-10-08T11:16:32.283Z,59040
2017-10-08T11:17:33.911Z,48512
2017-10-08T11:18:35.544Z,12692
2017-10-08T11:19:37.177Z,9412
2017-10-08T11:20:38.811Z,14396
2017-10-08T11:21:40.442Z,14232
2017-10-08T11:22:42.074Z,14512
2017-10-08T11:23:43.733Z,11484
2017-10-08T11:24:45.365Z,9860
2017-10-08T11:25:47.042Z,10212
2017-10-08T11:26:48.673Z,12580
2017-10-08T11:27:50.307Z,9280
2017-10-08T11:28:51.934Z,8348
2017-10-08T11:29:53.584Z,6168
2017-10-08T11:30:55.195Z,5948
2017-10-08T11:31:56.826Z,7208
2017-10-08T11:32:59.133Z,8352
2017-10-08T11:34:00.769Z,9828
2017-10-08T11:35:02.403Z,9272
2017-10-08T11:36:04.030Z,4788
2017-10-08T11:37:05.662Z,3700
2017-10-08T11:38:07.288Z,4556
2017-10-08T11:39:08.920Z,6424
2017-10-08T11:40:10.552Z,6300
2017-10-08T11:41:12.182Z,4520
2017-10-08T11:42:13.829Z,3448
2017-10-08T11:43:15.450Z,2940
2017-10-08T11:44:17.080Z,3120
2017-10-08T11:45:18.707Z,3172
2017-10-08T11:46:20.336Z,3028
2017-10-08T11:47:21.964Z,2268
2017-10-08T11:48:23.593Z,1812
2017-10-08T11:49:25.222Z,1780
2017-10-08T11:50:26.847Z,1804
2017-10-08T11:51:28.472Z,1712
2017-10-08T11:52:30.102Z,1624
2017-10-08T11:53:31.726Z,1624
2017-10-08T11:54:33.357Z,1544
2017-10-08T11:55:34.982Z,1428
2017-10-08T11:56:36.610Z,1384
2017-10-08T11:57:38.236Z,1140
2017-10-08T11:58:39.871Z,992
2017-10-08T11:59:41.498Z,868
2017-10-08T12:00:43.120Z,756
2017-10-08T12:01:44.760Z,660
2017-10-08T12:02:46.387Z,628
2017-10-08T12:03:48.017Z,632
2017-10-08T12:04:51.146Z,600
2017-10-08T12:05:52.823Z,496
2017-10-08T12:06:54.450Z,528
2017-10-08T12:07:57.768Z,592
2017-10-08T12:08:59.430Z,716
2017-10-08T12:10:01.067Z,840
2017-10-08T12:11:02.696Z,940
2017-10-08T12:12:04.402Z,932
2017-10-08T12:13:06.030Z,1164
2017-10-08T12:14:07.654Z,1288
2017-10-08T12:15:09.279Z,1152
2017-10-08T12:16:10.905Z,1164
2017-10-08T12:17:12.533Z,1120
2017-10-08T12:18:14.164Z,1172
2017-10-08T12:19:15.788Z,1292
2017-10-08T12:20:17.412Z,1516
2017-10-08T12:21:19.039Z,1792
2017-10-08T12:22:20.666Z,1772
2017-10-08T12:23:22.290Z,1804
2017-10-08T12:24:23.917Z,1944
2017-10-08T12:25:25.542Z,2248
2017-10-08T12:26:27.167Z,2508
2017-10-08T12:27:28.793Z,2296
2017-10-08T12:28:30.417Z,2368
2017-10-08T12:29:33.498Z,2240
2017-10-08T12:30:35.123Z,2024
2017-10-08T12:31:37.019Z,2308
2017-10-08T12:32:38.422Z,3000
2017-10-08T12:33:40.050Z,3280
2017-10-08T12:34:42.239Z,2796
2017-10-08T12:35:43.904Z,2408
2017-10-08T12:36:45.528Z,2092
2017-10-08T12:37:47.153Z,2048
2017-10-08T12:38:48.785Z,2040
2017-10-08T12:39:50.607Z,1844
2017-10-08T12:40:52.228Z,1572
2017-10-08T12:41:53.855Z,1608
2017-10-08T12:42:55.480Z,1956
2017-10-08T12:43:57.106Z,2132
2017-10-08T12:44:58.728Z,2420
2017-10-08T12:46:00.358Z,2540
2017-10-08T12:47:01.985Z,2404
2017-10-08T12:48:03.607Z,1956
2017-10-08T12:49:05.237Z,1736
2017-10-08T12:50:06.864Z,1528
2017-10-08T12:51:08.485Z,1480
2017-10-08T12:52:10.115Z,1424
2017-10-08T12:53:11.739Z,1476
2017-10-08T12:54:13.367Z,1552
2017-10-08T12:55:14.988Z,1500
2017-10-08T12:56:16.614Z,1612
2017-10-08T12:57:18.240Z,1912
2017-10-08T12:58:19.869Z,2060
2017-10-08T12:59:21.494Z,2232
2017-10-08T13:00:23.119Z,2320
2017-10-08T13:01:24.744Z,2428
2017-10-08T13:02:26.368Z,2544
2017-10-08T13:03:27.990Z,2380
2017-10-08T13:04:29.617Z,2000
2017-10-08T13:05:31.242Z,1516
2017-10-08T13:06:32.868Z,1408
2017-10-08T13:07:34.498Z,1608
2017-10-08T13:08:38.293Z,1680
2017-10-08T13:09:39.988Z,1508
2017-10-08T13:10:41.614Z,1448
2017-10-08T13:11:45.211Z,1420
2017-10-08T13:12:47.154Z,1288
2017-10-08T13:13:48.846Z,1324
2017-10-08T13:14:51.469Z,1404
2017-10-08T13:15:53.189Z,1492
2017-10-08T13:16:54.891Z,1740
2017-10-08T13:17:56.532Z,1736
2017-10-08T13:18:58.517Z,1712
2017-10-08T13:20:00.140Z,1636
2017-10-08T13:21:01.768Z,1620
2017-10-08T13:22:03.394Z,1460
2017-10-08T13:23:05.290Z,1304
2017-10-08T13:24:06.905Z,1172
2017-10-08T13:25:09.913Z,1128
2017-10-08T13:26:12.681Z,1112
2017-10-08T13:27:14.309Z,1208
2017-10-08T13:28:16.008Z,1264
2017-10-08T13:29:17.635Z,1304
2017-10-08T13:30:19.266Z,1432
2017-10-08T13:31:20.895Z,1720
2017-10-08T13:32:22.866Z,2200
2017-10-08T13:33:24.796Z,2780
2017-10-08T13:34:26.442Z,3576
2017-10-08T13:35:28.148Z,3984
2017-10-08T13:36:29.784Z,4000
2017-10-08T13:37:33.493Z,4524
2017-10-08T13:38:35.099Z,6220
2017-10-08T13:39:36.782Z,7156
2017-10-08T13:40:38.422Z,6872
2017-10-08T13:41:40.126Z,6336
2017-10-08T13:42:41.898Z,5976
2017-10-08T13:43:43.520Z,5672
2017-10-08T13:44:45.193Z,5308
2017-10-08T13:45:46.825Z,4856
2017-10-08T13:46:48.459Z,4756
2017-10-08T13:47:50.089Z,4972
2017-10-08T13:48:52.168Z,4720
2017-10-08T13:49:53.805Z,5196
2017-10-08T13:50:56.696Z,5868
2017-10-08T13:51:58.387Z,6280
2017-10-08T13:53:00.231Z,6308
2017-10-08T13:54:01.875Z,5108
2017-10-08T13:55:03.531Z,4304
2017-10-08T13:56:05.192Z,3628
2017-10-08T13:57:06.850Z,3296
2017-10-08T13:58:08.745Z,2996
2017-10-08T13:59:10.413Z,2712
2017-10-08T14:00:12.366Z,2964
2017-10-08T14:01:14.665Z,3764
2017-10-08T14:02:16.280Z,3984
2017-10-08T14:03:17.985Z,3736
2017-10-08T14:04:19.722Z,3444
2017-10-08T14:05:21.349Z,3368
2017-10-08T14:06:25.270Z,3448
2017-10-08T14:07:27.483Z,4184
2017-10-08T14:08:29.105Z,5736
2017-10-08T14:09:30.731Z,5228
2017-10-08T14:10:32.419Z,4396
2017-10-08T14:11:34.053Z,3544
2017-10-08T14:12:38.743Z,2724
2017-10-08T14:13:40.376Z,2328
2017-10-08T14:14:45.239Z,1852
2017-10-08T14:15:49.514Z,1468
2017-10-08T14:16:50.911Z,1396